nws-alerts: Checking more than four warning/county codes can delay the loading of your pages. You should use a cron job to get the data.
EllijayWeather Station Historical Data
Daily Summary for April 25, 2019 Units:  English    Metric   Both
Daily Weekly Monthly Yearly Custom
  High: Low: Average:
Temperature: 73.6 °F 54.3 °F 62.8 °F
Dew Point: 63.0 °F 52.0 °F 56.8 °F
Humidity: 93% 57% 82%
Wind Speed: 4.0mph 0.0mph 0.1mph
Wind Gust: 6.0mph - -
Wind- - SSE
Pressure: 29.97 in 29.82 in -
Precipitation: 0.00 in    
Historical Graphs
 
 
Tabular Data for April 25, 2019
Time Temperature Dew Point Pressure Wind Wind Speed Wind Gust Humidity Rainfall Rate (Hourly) solar
00:04 57.0 °F 53.4 °F 29.97 in Calm     88% 0.00 in meteobridge W/m2
00:09 56.8 °F 53.2 °F 29.97 in Calm     88% 0.00 in meteobridge W/m2
00:14 56.7 °F 53.1 °F 29.97 in Calm     88% 0.00 in meteobridge W/m2
00:19 56.5 °F 53.2 °F 29.97 in Calm     89% 0.00 in meteobridge W/m2
00:24 56.5 °F 53.2 °F 29.97 in Calm     89% 0.00 in meteobridge W/m2
00:29 56.3 °F 53.1 °F 29.97 in Calm     89% 0.00 in meteobridge W/m2
00:34 56.1 °F 52.9 °F 29.97 in Calm     89% 0.00 in meteobridge W/m2
00:39 56.1 °F 53.2 °F 29.97 in Calm     90% 0.00 in meteobridge W/m2
00:44 56.1 °F 53.2 °F 29.97 in Calm     90% 0.00 in meteobridge W/m2
00:49 55.9 °F 53.1 °F 29.97 in Calm     90% 0.00 in meteobridge W/m2
00:54 55.9 °F 53.1 °F 29.97 in Calm     90% 0.00 in meteobridge W/m2
00:59 55.8 °F 52.9 °F 29.97 in Calm     90% 0.00 in meteobridge W/m2
01:04 55.8 °F 52.9 °F 29.97 in Calm     90% 0.00 in meteobridge W/m2
01:09 55.6 °F 52.7 °F 29.96 in Calm     90% 0.00 in meteobridge W/m2
01:14 55.4 °F 52.5 °F 29.97 in Calm     90% 0.00 in meteobridge W/m2
01:19 55.2 °F 52.3 °F 29.96 in Calm     90% 0.00 in meteobridge W/m2
01:24 55.2 °F 52.3 °F 29.96 in Calm     90% 0.00 in meteobridge W/m2
01:29 55.0 °F 52.2 °F 29.97 in Calm     90% 0.00 in meteobridge W/m2
01:34 55.0 °F 52.5 °F 29.96 in Calm     91% 0.00 in meteobridge W/m2
01:39 55.0 °F 52.5 °F 29.96 in Calm     91% 0.00 in meteobridge W/m2
01:44 54.9 °F 52.0 °F 29.96 in Calm     90% 0.00 in meteobridge W/m2
01:49 54.9 °F 52.3 °F 29.96 in Calm     91% 0.00 in meteobridge W/m2
01:54 54.9 °F 52.3 °F 29.96 in Calm     91% 0.00 in meteobridge W/m2
01:59 54.9 °F 52.3 °F 29.96 in Calm     91% 0.00 in meteobridge W/m2
02:04 54.9 °F 52.3 °F 29.96 in Calm     91% 0.00 in meteobridge W/m2
02:09 54.7 °F 52.2 °F 29.96 in Calm     91% 0.00 in meteobridge W/m2
02:14 54.7 °F 52.2 °F 29.96 in Calm     91% 0.00 in meteobridge W/m2
02:19 54.7 °F 52.2 °F 29.96 in Calm     91% 0.00 in meteobridge W/m2
02:24 54.7 °F 52.2 °F 29.96 in Calm     91% 0.00 in meteobridge W/m2
02:29 54.7 °F 52.2 °F 29.96 in Calm     91% 0.00 in meteobridge W/m2
02:34 54.7 °F 52.2 °F 29.96 in Calm     91% 0.00 in meteobridge W/m2
02:39 54.7 °F 52.2 °F 29.96 in Calm     91% 0.00 in meteobridge W/m2
02:44 54.7 °F 52.2 °F 29.95 in Calm     91% 0.00 in meteobridge W/m2
02:49 54.7 °F 52.2 °F 29.95 in Calm     91% 0.00 in meteobridge W/m2
02:54 54.7 °F 52.2 °F 29.95 in Calm     91% 0.00 in meteobridge W/m2
02:59 54.7 °F 52.2 °F 29.95 in Calm     91% 0.00 in meteobridge W/m2
03:04 54.7 °F 52.2 °F 29.95 in Calm     91% 0.00 in meteobridge W/m2
03:09 54.7 °F 52.2 °F 29.95 in Calm     91% 0.00 in meteobridge W/m2
03:14 54.7 °F 52.2 °F 29.95 in Calm     91% 0.00 in meteobridge W/m2
03:19 54.7 °F 52.2 °F 29.95 in Calm     91% 0.00 in meteobridge W/m2
03:24 54.7 °F 52.2 °F 29.95 in Calm     91% 0.00 in meteobridge W/m2
03:29 54.7 °F 52.2 °F 29.95 in Calm     91% 0.00 in meteobridge W/m2
03:34 54.7 °F 52.2 °F 29.95 in Calm     91% 0.00 in meteobridge W/m2
03:39 54.7 °F 52.2 °F 29.95 in Calm     91% 0.00 in meteobridge W/m2
03:44 54.7 °F 52.2 °F 29.94 in Calm     91% 0.00 in meteobridge W/m2
03:49 54.7 °F 52.2 °F 29.94 in Calm     91% 0.00 in meteobridge W/m2
03:54 54.7 °F 52.2 °F 29.94 in Calm     91% 0.00 in meteobridge W/m2
03:59 54.7 °F 52.2 °F 29.94 in Calm     91% 0.00 in meteobridge W/m2
04:04 54.7 °F 52.2 °F 29.94 in Calm     91% 0.00 in meteobridge W/m2
04:09 54.7 °F 52.2 °F 29.94 in Calm     91% 0.00 in meteobridge W/m2
04:14 54.7 °F 52.2 °F 29.94 in Calm     91% 0.00 in meteobridge W/m2
04:19 54.7 °F 52.2 °F 29.94 in Calm     91% 0.00 in meteobridge W/m2
04:24 54.7 °F 52.2 °F 29.95 in Calm     91% 0.00 in meteobridge W/m2
04:29 54.7 °F 52.2 °F 29.94 in Calm     91% 0.00 in meteobridge W/m2
04:34 54.5 °F 52.0 °F 29.94 in Calm     91% 0.00 in meteobridge W/m2
04:39 54.5 °F 52.2 °F 29.94 in Calm     92% 0.00 in meteobridge W/m2
04:44 54.5 °F 52.2 °F 29.95 in Calm     92% 0.00 in meteobridge W/m2
04:49 54.5 °F 52.2 °F 29.95 in Calm     92% 0.00 in meteobridge W/m2
04:54 54.5 °F 52.2 °F 29.95 in Calm     92% 0.00 in meteobridge W/m2
04:59 54.5 °F 52.2 °F 29.95 in Calm     92% 0.00 in meteobridge W/m2
05:04 54.3 °F 52.0 °F 29.95 in Calm     92% 0.00 in meteobridge W/m2
05:09 54.3 °F 52.0 °F 29.94 in Calm     92% 0.00 in meteobridge W/m2
05:14 54.3 °F 52.0 °F 29.93 in Calm     92% 0.00 in meteobridge W/m2
05:19 54.3 °F 52.0 °F 29.93 in Calm     92% 0.00 in meteobridge W/m2
05:24 54.7 °F 52.3 °F 29.94 in Calm     92% 0.00 in meteobridge W/m2
05:29 54.7 °F 52.3 °F 29.94 in Calm     92% 0.00 in meteobridge W/m2
05:34 54.7 °F 52.3 °F 29.95 in Calm     92% 0.00 in meteobridge W/m2
05:39 54.7 °F 52.3 °F 29.95 in Calm     92% 0.00 in meteobridge W/m2
05:44 54.9 °F 52.5 °F 29.95 in Calm     92% 0.00 in meteobridge W/m2
05:49 54.9 °F 52.5 °F 29.95 in Calm     92% 0.00 in meteobridge W/m2
05:54 54.9 °F 52.5 °F 29.95 in Calm     92% 0.00 in meteobridge W/m2
05:59 55.0 °F 52.7 °F 29.95 in Calm     92% 0.00 in meteobridge W/m2
06:04 55.0 °F 52.7 °F 29.95 in Calm     92% 0.00 in meteobridge W/m2
06:09 55.2 °F 52.9 °F 29.95 in Calm     92% 0.00 in meteobridge W/m2
06:14 55.2 °F 52.9 °F 29.96 in Calm     92% 0.00 in meteobridge W/m2
06:19 55.2 °F 52.9 °F 29.95 in Calm     92% 0.00 in meteobridge W/m2
06:24 55.2 °F 52.9 °F 29.96 in Calm     92% 0.00 in meteobridge W/m2
06:29 55.4 °F 53.1 °F 29.96 in Calm     92% 0.00 in meteobridge W/m2
06:34 55.4 °F 53.1 °F 29.96 in Calm     92% 0.00 in meteobridge W/m2
06:39 55.4 °F 53.1 °F 29.96 in Calm     92% 0.00 in meteobridge W/m2
06:44 55.6 °F 53.2 °F 29.96 in Calm     92% 0.00 in meteobridge W/m2
06:49 55.6 °F 53.2 °F 29.96 in Calm     92% 0.00 in meteobridge W/m2
06:54 55.4 °F 53.1 °F 29.95 in Calm     92% 0.00 in meteobridge W/m2
06:59 55.6 °F 53.2 °F 29.95 in Calm     92% 0.00 in meteobridge W/m2
07:04 55.6 °F 53.2 °F 29.95 in Calm     92% 0.00 in meteobridge W/m2
07:09 55.6 °F 53.2 °F 29.96 in Calm     92% 0.00 in meteobridge W/m2
07:14 55.6 °F 53.2 °F 29.96 in Calm     92% 0.00 in meteobridge W/m2
07:19 55.6 °F 53.2 °F 29.95 in Calm     92% 0.00 in meteobridge W/m2
07:24 55.6 °F 53.2 °F 29.96 in Calm     92% 0.00 in meteobridge W/m2
07:29 55.6 °F 53.2 °F 29.96 in Calm     92% 0.00 in meteobridge W/m2
07:34 55.8 °F 53.8 °F 29.96 in Calm     93% 0.00 in meteobridge W/m2
07:39 55.8 °F 53.8 °F 29.96 in Calm     93% 0.00 in meteobridge W/m2
07:44 55.8 °F 53.8 °F 29.96 in Calm     93% 0.00 in meteobridge W/m2
07:49 55.9 °F 54.0 °F 29.96 in Calm     93% 0.00 in meteobridge W/m2
07:54 56.1 °F 54.1 °F 29.95 in Calm     93% 0.00 in meteobridge W/m2
07:59 56.3 °F 54.3 °F 29.96 in Calm     93% 0.00 in meteobridge W/m2
08:04 56.5 °F 54.5 °F 29.96 in Calm     93% 0.00 in meteobridge W/m2
08:09 56.7 °F 54.7 °F 29.96 in Calm     93% 0.00 in meteobridge W/m2
08:14 56.8 °F 54.9 °F 29.95 in Calm     93% 0.00 in meteobridge W/m2
08:19 57.0 °F 55.0 °F 29.95 in Calm     93% 0.00 in meteobridge W/m2
08:24 57.4 °F 55.4 °F 29.95 in Calm     93% 0.00 in meteobridge W/m2
08:29 57.6 °F 55.6 °F 29.95 in Calm     93% 0.00 in meteobridge W/m2
08:34 57.7 °F 55.8 °F 29.95 in Calm     93% 0.00 in meteobridge W/m2
08:39 57.9 °F 55.9 °F 29.95 in Calm     93% 0.00 in meteobridge W/m2
08:44 58.5 °F 56.1 °F 29.95 in Calm     92% 0.00 in meteobridge W/m2
08:49 58.8 °F 56.5 °F 29.96 in Calm     92% 0.00 in meteobridge W/m2
08:54 59.2 °F 56.8 °F 29.95 in Calm     92% 0.00 in meteobridge W/m2
08:59 59.5 °F 57.2 °F 29.95 in Calm     92% 0.00 in meteobridge W/m2
09:04 60.1 °F 57.4 °F 29.95 in Calm     91% 0.00 in meteobridge W/m2
09:09 60.4 °F 57.6 °F 29.96 in Calm     90% 0.00 in meteobridge W/m2
09:14 60.8 °F 57.9 °F 29.96 in Calm     90% 0.00 in meteobridge W/m2
09:19 61.3 °F 58.5 °F 29.96 in Calm     90% 0.00 in meteobridge W/m2
09:24 61.9 °F 58.6 °F 29.95 in Calm     89% 0.00 in meteobridge W/m2
09:29 62.2 °F 58.6 °F 29.95 in Calm     88% 0.00 in meteobridge W/m2
09:34 62.4 °F 59.2 °F 29.95 in Calm     89% 0.00 in meteobridge W/m2
09:39 63.0 °F 59.4 °F 29.96 in Calm     88% 0.00 in meteobridge W/m2
09:44 63.5 °F 59.9 °F 29.96 in Calm     88% 0.00 in meteobridge W/m2
09:49 64.0 °F 60.4 °F 29.96 in Calm     88% 0.00 in meteobridge W/m2
09:54 64.4 °F 60.4 °F 29.96 in ESE 2.0 mph 2.0 mph 87% 0.00 in meteobridge W/m2
09:59 64.6 °F 60.6 °F 29.95 in Calm   1.0 mph 87% 0.00 in meteobridge W/m2
10:04 64.9 °F 61.3 °F 29.95 in Calm   1.0 mph 88% 0.00 in meteobridge W/m2
10:09 64.9 °F 61.0 °F 29.95 in Calm     87% 0.00 in meteobridge W/m2
10:14 65.1 °F 61.2 °F 29.95 in Calm     87% 0.00 in meteobridge W/m2
10:19 65.1 °F 60.8 °F 29.95 in Calm     86% 0.00 in meteobridge W/m2
10:24 65.1 °F 60.8 °F 29.96 in Calm     86% 0.00 in meteobridge W/m2
10:29 65.3 °F 61.0 °F 29.96 in Calm   1.0 mph 86% 0.00 in meteobridge W/m2
10:34 65.3 °F 61.0 °F 29.96 in Calm     86% 0.00 in meteobridge W/m2
10:39 65.1 °F 60.8 °F 29.96 in Calm     86% 0.00 in meteobridge W/m2
10:44 65.1 °F 60.8 °F 29.95 in Calm     86% 0.00 in meteobridge W/m2
10:49 65.1 °F 60.8 °F 29.95 in Calm     86% 0.00 in meteobridge W/m2
10:54 65.1 °F 60.8 °F 29.95 in Calm     86% 0.00 in meteobridge W/m2
10:59 65.5 °F 61.2 °F 29.94 in Calm     86% 0.00 in meteobridge W/m2
11:04 65.5 °F 61.2 °F 29.94 in Calm     86% 0.00 in meteobridge W/m2
11:09 65.7 °F 61.0 °F 29.94 in Calm     85% 0.00 in meteobridge W/m2
11:14 65.8 °F 61.2 °F 29.95 in Calm     85% 0.00 in meteobridge W/m2
11:19 66.0 °F 61.3 °F 29.95 in Calm     85% 0.00 in meteobridge W/m2
11:24 66.4 °F 61.3 °F 29.95 in Calm     84% 0.00 in meteobridge W/m2
11:29 66.2 °F 61.2 °F 29.95 in Calm     84% 0.00 in meteobridge W/m2
11:34 66.4 °F 61.3 °F 29.94 in Calm     84% 0.00 in meteobridge W/m2
11:39 66.6 °F 61.5 °F 29.94 in Calm     84% 0.00 in meteobridge W/m2
11:44 66.9 °F 61.5 °F 29.94 in Calm     83% 0.00 in meteobridge W/m2
11:49 66.9 °F 61.5 °F 29.94 in Calm     83% 0.00 in meteobridge W/m2
11:54 66.9 °F 61.2 °F 29.94 in Calm     82% 0.00 in meteobridge W/m2
11:59 67.3 °F 61.9 °F 29.93 in Calm     83% 0.00 in meteobridge W/m2
12:04 67.5 °F 61.3 °F 29.94 in Calm     81% 0.00 in meteobridge W/m2
12:09 67.8 °F 62.1 °F 29.94 in Calm     82% 0.00 in meteobridge W/m2
12:14 68.2 °F 61.7 °F 29.93 in Calm     80% 0.00 in meteobridge W/m2
12:19 68.5 °F 62.1 °F 29.93 in Calm   2.0 mph 80% 0.00 in meteobridge W/m2
12:24 69.1 °F 63.0 °F 29.92 in Calm     81% 0.00 in meteobridge W/m2
12:29 69.3 °F 62.1 °F 29.92 in Calm     78% 0.00 in meteobridge W/m2
12:34 69.4 °F 61.9 °F 29.93 in Calm   2.0 mph 77% 0.00 in meteobridge W/m2
12:39 69.4 °F 61.9 °F 29.92 in Calm   1.0 mph 77% 0.00 in meteobridge W/m2
12:44 69.8 °F 61.9 °F 29.92 in Calm     76% 0.00 in meteobridge W/m2
12:49 70.5 °F 63.0 °F 29.92 in NW 4.0 mph 6.0 mph 77% 0.00 in meteobridge W/m2
12:54 70.7 °F 62.1 °F 29.92 in Calm   3.0 mph 74% 0.00 in meteobridge W/m2
12:59 70.5 °F 62.2 °F 29.92 in WNW 0.9 mph 1.0 mph 75% 0.00 in meteobridge W/m2
13:04 70.5 °F 62.2 °F 29.92 in Calm     75% 0.00 in meteobridge W/m2
13:09 70.5 °F 62.6 °F 29.91 in Calm     76% 0.00 in meteobridge W/m2
13:14 70.9 °F 62.6 °F 29.91 in Calm     75% 0.00 in meteobridge W/m2
13:19 71.2 °F 61.7 °F 29.90 in SE 0.9 mph 4.0 mph 72% 0.00 in meteobridge W/m2
13:24 71.2 °F 61.0 °F 29.90 in Calm     70% 0.00 in meteobridge W/m2
13:29 71.2 °F 61.0 °F 29.90 in Calm     70% 0.00 in meteobridge W/m2
13:34 71.2 °F 61.0 °F 29.89 in Calm     70% 0.00 in meteobridge W/m2
13:39 71.4 °F 61.9 °F 29.89 in Calm     72% 0.00 in meteobridge W/m2
13:44 71.6 °F 61.3 °F 29.88 in ESE 0.9 mph 1.0 mph 70% 0.00 in meteobridge W/m2
13:49 72.0 °F 61.7 °F 29.88 in Calm     70% 0.00 in meteobridge W/m2
13:54 72.1 °F 61.0 °F 29.88 in Calm   1.0 mph 68% 0.00 in meteobridge W/m2
13:59 72.0 °F 60.4 °F 29.88 in Calm   1.0 mph 67% 0.00 in meteobridge W/m2
14:04 71.8 °F 60.3 °F 29.89 in Calm   1.0 mph 67% 0.00 in meteobridge W/m2
14:09 71.6 °F 60.4 °F 29.89 in East 2.0 mph 4.0 mph 68% 0.00 in meteobridge W/m2
14:14 71.2 °F 60.6 °F 29.90 in Calm     69% 0.00 in meteobridge W/m2
14:19 71.2 °F 60.6 °F 29.90 in Calm   1.0 mph 69% 0.00 in meteobridge W/m2
14:24 71.1 °F 60.8 °F 29.90 in Calm   1.0 mph 70% 0.00 in meteobridge W/m2
14:29 71.2 °F 60.6 °F 29.90 in East 0.9 mph 1.0 mph 69% 0.00 in meteobridge W/m2
14:34 71.2 °F 60.6 °F 29.89 in East 0.9 mph 4.0 mph 69% 0.00 in meteobridge W/m2
14:39 71.4 °F 60.8 °F 29.89 in Calm   1.0 mph 69% 0.00 in meteobridge W/m2
14:44 72.0 °F 60.8 °F 29.89 in Calm   2.0 mph 68% 0.00 in meteobridge W/m2
14:49 72.1 °F 61.0 °F 29.89 in Calm   4.0 mph 68% 0.00 in meteobridge W/m2
14:54 72.1 °F 61.0 °F 29.89 in Calm     68% 0.00 in meteobridge W/m2
14:59 72.1 °F 61.0 °F 29.89 in Calm   1.0 mph 68% 0.00 in meteobridge W/m2
15:04 72.1 °F 61.0 °F 29.89 in Calm   2.0 mph 68% 0.00 in meteobridge W/m2
15:09 71.8 °F 61.0 °F 29.89 in Calm   1.0 mph 69% 0.00 in meteobridge W/m2
15:14 71.6 °F 60.8 °F 29.89 in Calm     69% 0.00 in meteobridge W/m2
15:19 71.2 °F 60.6 °F 29.89 in Calm   1.0 mph 69% 0.00 in meteobridge W/m2
15:24 71.2 °F 61.0 °F 29.88 in Calm   1.0 mph 70% 0.00 in meteobridge W/m2
15:29 71.4 °F 61.2 °F 29.88 in Calm     70% 0.00 in meteobridge W/m2
15:34 71.8 °F 61.0 °F 29.88 in Calm   2.0 mph 69% 0.00 in meteobridge W/m2
15:39 72.0 °F 59.9 °F 29.88 in Calm   3.0 mph 66% 0.00 in meteobridge W/m2
15:44 72.0 °F 59.9 °F 29.89 in East 0.9 mph 2.0 mph 66% 0.00 in meteobridge W/m2
15:49 72.1 °F 60.1 °F 29.88 in Calm   1.0 mph 66% 0.00 in meteobridge W/m2
15:54 72.3 °F 60.3 °F 29.88 in East 0.9 mph 1.0 mph 66% 0.00 in meteobridge W/m2
15:59 72.9 °F 59.9 °F 29.88 in Calm   4.0 mph 64% 0.00 in meteobridge W/m2
16:04 73.2 °F 59.0 °F 29.88 in NNW 2.0 mph 4.0 mph 61% 0.00 in meteobridge W/m2
16:09 73.6 °F 58.3 °F 29.88 in Calm   4.0 mph 59% 0.00 in meteobridge W/m2
16:14 73.4 °F 58.6 °F 29.87 in SE 2.0 mph 2.0 mph 60% 0.00 in meteobridge W/m2
16:19 73.2 °F 58.5 °F 29.87 in Calm   6.0 mph 60% 0.00 in meteobridge W/m2
16:24 73.6 °F 59.4 °F 29.87 in Calm   4.0 mph 61% 0.00 in meteobridge W/m2
16:29 73.2 °F 57.6 °F 29.87 in ESE 0.9 mph 4.0 mph 58% 0.00 in meteobridge W/m2
16:34 72.9 °F 56.7 °F 29.87 in East 0.9 mph 2.0 mph 57% 0.00 in meteobridge W/m2
16:39 72.7 °F 57.0 °F 29.86 in Calm   2.0 mph 58% 0.00 in meteobridge W/m2
16:44 72.5 °F 56.8 °F 29.87 in Calm   5.0 mph 58% 0.00 in meteobridge W/m2
16:49 72.3 °F 56.3 °F 29.86 in Calm   4.0 mph 57% 0.00 in meteobridge W/m2
16:54 72.3 °F 56.7 °F 29.86 in Calm     58% 0.00 in meteobridge W/m2
16:59 72.1 °F 57.0 °F 29.86 in Calm   2.0 mph 59% 0.00 in meteobridge W/m2
17:04 72.0 °F 57.4 °F 29.86 in Calm     60% 0.00 in meteobridge W/m2
17:09 72.0 °F 57.4 °F 29.86 in Calm   3.0 mph 60% 0.00 in meteobridge W/m2
17:14 71.8 °F 57.6 °F 29.86 in East 0.9 mph 2.0 mph 61% 0.00 in meteobridge W/m2
17:19 71.8 °F 57.6 °F 29.86 in Calm   5.0 mph 61% 0.00 in meteobridge W/m2
17:24 71.8 °F 58.1 °F 29.86 in SSE 2.0 mph 4.0 mph 62% 0.00 in meteobridge W/m2
17:29 71.8 °F 58.5 °F 29.86 in Calm     63% 0.00 in meteobridge W/m2
17:34 71.8 °F 58.1 °F 29.86 in Calm     62% 0.00 in meteobridge W/m2
17:39 71.2 °F 57.9 °F 29.86 in SSE 0.9 mph 2.0 mph 63% 0.00 in meteobridge W/m2
17:44 70.9 °F 58.1 °F 29.86 in Calm     64% 0.00 in meteobridge W/m2
17:49 70.2 °F 58.6 °F 29.86 in Calm   4.0 mph 67% 0.00 in meteobridge W/m2
17:54 69.6 °F 59.0 °F 29.86 in Calm     69% 0.00 in meteobridge W/m2
17:59 69.3 °F 59.5 °F 29.86 in Calm     71% 0.00 in meteobridge W/m2
18:04 69.1 °F 59.4 °F 29.86 in Calm     71% 0.00 in meteobridge W/m2
18:09 69.1 °F 59.7 °F 29.86 in Calm     72% 0.00 in meteobridge W/m2
18:14 69.1 °F 59.7 °F 29.86 in Calm     72% 0.00 in meteobridge W/m2
18:19 69.1 °F 59.4 °F 29.85 in Calm     71% 0.00 in meteobridge W/m2
18:24 69.1 °F 58.8 °F 29.85 in East 0.9 mph 1.0 mph 70% 0.00 in meteobridge W/m2
18:29 69.1 °F 58.8 °F 29.85 in Calm     70% 0.00 in meteobridge W/m2
18:34 69.1 °F 58.8 °F 29.85 in Calm     70% 0.00 in meteobridge W/m2
18:39 69.1 °F 58.8 °F 29.85 in Calm     70% 0.00 in meteobridge W/m2
18:44 69.1 °F 58.5 °F 29.85 in Calm   1.0 mph 69% 0.00 in meteobridge W/m2
18:49 69.1 °F 58.8 °F 29.85 in Calm   1.0 mph 70% 0.00 in meteobridge W/m2
18:54 68.7 °F 58.1 °F 29.85 in Calm     69% 0.00 in meteobridge W/m2
18:59 68.7 °F 58.5 °F 29.85 in Calm     70% 0.00 in meteobridge W/m2
19:04 68.7 °F 58.5 °F 29.84 in SE 4.0 mph 4.0 mph 70% 0.00 in meteobridge W/m2
19:09 68.7 °F 58.5 °F 29.84 in Calm     70% 0.00 in meteobridge W/m2
19:14 68.5 °F 58.8 °F 29.85 in Calm     71% 0.00 in meteobridge W/m2
19:19 68.5 °F 58.8 °F 29.84 in Calm   1.0 mph 71% 0.00 in meteobridge W/m2
19:24 68.4 °F 58.6 °F 29.84 in Calm     71% 0.00 in meteobridge W/m2
19:29 68.4 °F 58.6 °F 29.84 in Calm     71% 0.00 in meteobridge W/m2
19:34 68.2 °F 58.5 °F 29.84 in Calm     71% 0.00 in meteobridge W/m2
19:39 68.0 °F 58.3 °F 29.83 in Calm     71% 0.00 in meteobridge W/m2
19:44 67.6 °F 59.4 °F 29.84 in Calm   6.0 mph 75% 0.00 in meteobridge W/m2
19:49 66.9 °F 59.9 °F 29.85 in Calm     78% 0.00 in meteobridge W/m2
19:54 66.0 °F 59.7 °F 29.85 in Calm     80% 0.00 in meteobridge W/m2
19:59 65.5 °F 59.9 °F 29.85 in Calm   1.0 mph 82% 0.00 in meteobridge W/m2
20:04 64.8 °F 59.9 °F 29.85 in Calm     84% 0.00 in meteobridge W/m2
20:09 64.2 °F 59.4 °F 29.84 in Calm     84% 0.00 in meteobridge W/m2
20:14 63.9 °F 59.0 °F 29.84 in Calm     84% 0.00 in meteobridge W/m2
20:19 63.5 °F 58.6 °F 29.84 in Calm     84% 0.00 in meteobridge W/m2
20:24 63.3 °F 58.5 °F 29.84 in Calm     84% 0.00 in meteobridge W/m2
20:29 63.1 °F 58.6 °F 29.84 in Calm     85% 0.00 in meteobridge W/m2
20:34 63.1 °F 57.9 °F 29.84 in Calm     83% 0.00 in meteobridge W/m2
20:39 63.1 °F 57.9 °F 29.84 in Calm     83% 0.00 in meteobridge W/m2
20:44 63.1 °F 57.6 °F 29.84 in Calm     82% 0.00 in meteobridge W/m2
20:49 63.1 °F 57.6 °F 29.84 in Calm     82% 0.00 in meteobridge W/m2
20:54 63.1 °F 57.6 °F 29.83 in Calm     82% 0.00 in meteobridge W/m2
20:59 63.0 °F 57.4 °F 29.83 in Calm     82% 0.00 in meteobridge W/m2
21:04 63.0 °F 58.1 °F 29.83 in Calm     84% 0.00 in meteobridge W/m2
21:09 62.8 °F 58.8 °F 29.84 in Calm     87% 0.00 in meteobridge W/m2
21:14 62.6 °F 58.6 °F 29.83 in Calm     87% 0.00 in meteobridge W/m2
21:19 62.2 °F 58.6 °F 29.84 in Calm     88% 0.00 in meteobridge W/m2
21:24 62.1 °F 58.1 °F 29.83 in Calm     87% 0.00 in meteobridge W/m2
21:29 61.9 °F 57.0 °F 29.83 in Calm     84% 0.00 in meteobridge W/m2
21:34 62.1 °F 57.6 °F 29.83 in Calm     85% 0.00 in meteobridge W/m2
21:39 61.9 °F 57.0 °F 29.83 in Calm     84% 0.00 in meteobridge W/m2
21:44 62.1 °F 56.8 °F 29.83 in Calm     83% 0.00 in meteobridge W/m2
21:49 62.1 °F 56.5 °F 29.84 in Calm     82% 0.00 in meteobridge W/m2
21:54 62.1 °F 56.5 °F 29.84 in Calm     82% 0.00 in meteobridge W/m2
21:59 62.1 °F 55.4 °F 29.83 in Calm     79% 0.00 in meteobridge W/m2
22:04 62.2 °F 55.6 °F 29.83 in Calm     79% 0.00 in meteobridge W/m2
22:09 62.2 °F 55.2 °F 29.83 in Calm     78% 0.00 in meteobridge W/m2
22:14 62.2 °F 55.2 °F 29.84 in Calm   1.0 mph 78% 0.00 in meteobridge W/m2
22:19 62.4 °F 55.0 °F 29.84 in Calm     77% 0.00 in meteobridge W/m2
22:24 62.4 °F 55.0 °F 29.84 in Calm     77% 0.00 in meteobridge W/m2
22:29 62.4 °F 55.4 °F 29.85 in Calm     78% 0.00 in meteobridge W/m2
22:34 62.4 °F 55.0 °F 29.85 in Calm     77% 0.00 in meteobridge W/m2
22:39 62.4 °F 55.4 °F 29.85 in Calm     78% 0.00 in meteobridge W/m2
22:44 62.4 °F 55.4 °F 29.84 in Calm   1.0 mph 78% 0.00 in meteobridge W/m2
22:49 62.4 °F 55.4 °F 29.84 in Calm     78% 0.00 in meteobridge W/m2
22:54 62.4 °F 55.4 °F 29.85 in Calm   1.0 mph 78% 0.00 in meteobridge W/m2
22:59 62.2 °F 54.9 °F 29.85 in Calm     77% 0.00 in meteobridge W/m2
23:04 62.2 °F 54.9 °F 29.85 in Calm     77% 0.00 in meteobridge W/m2
23:09 62.2 °F 54.9 °F 29.85 in Calm     77% 0.00 in meteobridge W/m2
23:14 62.2 °F 54.9 °F 29.84 in Calm     77% 0.00 in meteobridge W/m2
23:19 62.2 °F 54.9 °F 29.83 in Calm   2.0 mph 77% 0.00 in meteobridge W/m2
23:24 62.2 °F 54.9 °F 29.83 in Calm     77% 0.00 in meteobridge W/m2
23:29 62.2 °F 55.2 °F 29.83 in Calm     78% 0.00 in meteobridge W/m2
23:34 62.1 °F 55.0 °F 29.83 in Calm     78% 0.00 in meteobridge W/m2
23:39 62.1 °F 55.0 °F 29.83 in Calm     78% 0.00 in meteobridge W/m2
23:44 61.9 °F 55.2 °F 29.83 in Calm     79% 0.00 in meteobridge W/m2
23:49 61.9 °F 55.2 °F 29.83 in Calm     79% 0.00 in meteobridge W/m2
23:54 61.5 °F 54.9 °F 29.82 in Calm     79% 0.00 in meteobridge W/m2
23:59 61.5 °F 54.9 °F 29.82 in Calm     79% 0.00 in meteobridge W/m2
EllijayWeather
Compliments of Weather Underground - 2.5 mb